createdAt,value
2023-03-29T00:02:19.722Z,3.78
2023-03-29T00:04:47.183Z,3.73
2023-03-29T00:07:14.386Z,3.80
2023-03-29T00:09:41.587Z,3.83
2023-03-29T00:12:08.495Z,3.82
2023-03-29T00:14:35.415Z,3.69
2023-03-29T00:17:02.465Z,3.82
2023-03-29T00:19:29.355Z,3.84
2023-03-29T00:21:56.451Z,3.83
2023-03-29T00:24:23.966Z,3.75
2023-03-29T00:26:50.845Z,3.75
2023-03-29T00:29:17.758Z,3.70
2023-03-29T00:34:18.218Z,3.63
2023-03-29T00:36:45.720Z,3.64
2023-03-29T00:39:12.604Z,3.65
2023-03-29T00:41:39.424Z,3.69
2023-03-29T00:44:06.531Z,3.64
2023-03-29T00:46:34.973Z,3.67
2023-03-29T00:49:07.921Z,3.60
2023-03-29T00:51:38.337Z,3.45
2023-03-29T00:54:14.806Z,3.25
2023-03-29T00:56:47.554Z,3.20
2023-03-29T00:59:20.692Z,3.37
2023-03-29T01:01:48.307Z,3.38
2023-03-29T01:04:18.636Z,3.35
2023-03-29T01:06:57.033Z,3.28
2023-03-29T01:09:27.196Z,3.23
2023-03-29T01:11:58.181Z,3.23
2023-03-29T01:14:41.847Z,2.81
2023-03-29T01:17:12.913Z,3.18
2023-03-29T01:19:50.216Z,3.17
2023-03-29T01:22:39.236Z,3.27
2023-03-29T01:25:16.871Z,3.26
2023-03-29T01:28:04.047Z,3.22
2023-03-29T01:30:40.376Z,3.18
2023-03-29T01:33:37.524Z,3.19
2023-03-29T01:36:14.468Z,3.14
2023-03-29T01:38:56.892Z,3.07
2023-03-29T01:41:33.290Z,3.11
2023-03-29T01:44:07.361Z,3.11
2023-03-29T01:46:47.008Z,3.16
2023-03-29T01:49:25.650Z,3.09
2023-03-29T01:51:59.168Z,3.09
2023-03-29T01:54:33.932Z,3.13
2023-03-29T01:57:04.989Z,3.20
2023-03-29T01:59:36.087Z,3.18
2023-03-29T02:02:08.404Z,3.18
2023-03-29T02:04:39.845Z,3.20
2023-03-29T02:07:09.069Z,3.24
2023-03-29T02:09:38.493Z,3.04
2023-03-29T02:12:07.245Z,2.86
2023-03-29T02:14:35.154Z,3.01
2023-03-29T02:17:26.922Z,2.98
2023-03-29T02:20:01.626Z,3.01
2023-03-29T02:22:36.731Z,2.98
2023-03-29T02:25:08.379Z,2.93
2023-03-29T02:27:38.114Z,2.85
2023-03-29T02:30:11.060Z,2.81
2023-03-29T02:32:49.511Z,2.76
2023-03-29T02:35:23.319Z,2.76
2023-03-29T02:37:55.029Z,2.82
2023-03-29T02:40:24.590Z,2.74
2023-03-29T02:42:55.708Z,2.80
2023-03-29T02:45:24.085Z,2.81
2023-03-29T02:47:56.503Z,2.70
2023-03-29T02:50:26.326Z,2.50
2023-03-29T02:52:59.815Z,2.69
2023-03-29T02:55:34.666Z,2.71
2023-03-29T02:58:08.537Z,2.64
2023-03-29T03:00:41.015Z,2.62
2023-03-29T03:03:08.929Z,2.48
2023-03-29T03:05:36.231Z,2.43
2023-03-29T03:08:04.671Z,2.26
2023-03-29T03:10:33.235Z,2.44
2023-03-29T03:13:01.155Z,2.31
2023-03-29T03:15:31.218Z,2.38
2023-03-29T03:17:58.303Z,2.40
2023-03-29T03:20:26.558Z,2.48
2023-03-29T03:22:57.478Z,2.46
2023-03-29T03:25:24.936Z,2.46
2023-03-29T03:27:52.205Z,2.46
2023-03-29T03:30:22.410Z,2.44
2023-03-29T03:33:09.599Z,2.45
2023-03-29T03:35:57.394Z,2.57
2023-03-29T03:38:25.480Z,2.59
2023-03-29T03:40:58.267Z,2.56
2023-03-29T03:43:29.594Z,2.57
2023-03-29T03:46:00.321Z,2.57
2023-03-29T03:48:27.913Z,2.63
2023-03-29T03:51:09.050Z,2.60
2023-03-29T03:53:36.655Z,2.55
2023-03-29T03:56:13.509Z,2.60
2023-03-29T03:59:02.876Z,2.41
2023-03-29T04:01:35.635Z,2.39
2023-03-29T04:04:14.581Z,2.54
2023-03-29T04:06:52.911Z,2.47
2023-03-29T04:09:55.548Z,2.43
2023-03-29T04:12:43.696Z,2.36
2023-03-29T04:15:12.257Z,2.34
2023-03-29T04:17:45.596Z,2.27
2023-03-29T04:20:33.269Z,2.22
2023-03-29T04:23:01.530Z,2.24
2023-03-29T04:25:29.595Z,2.21
2023-03-29T04:28:15.488Z,2.23
2023-03-29T04:31:14.114Z,2.25
2023-03-29T04:33:49.639Z,2.21
2023-03-29T04:36:17.506Z,2.19
2023-03-29T04:38:47.393Z,2.27
2023-03-29T04:41:15.702Z,2.30
2023-03-29T04:43:56.135Z,2.19
2023-03-29T04:46:27.680Z,2.33
2023-03-29T04:49:15.092Z,2.48
2023-03-29T04:51:45.821Z,2.55
2023-03-29T04:54:12.831Z,2.71
2023-03-29T04:57:15.364Z,2.66
2023-03-29T04:59:55.828Z,2.88
2023-03-29T05:02:44.248Z,2.89
2023-03-29T05:05:12.960Z,2.99
2023-03-29T05:07:40.993Z,3.19
2023-03-29T05:10:11.272Z,3.10
2023-03-29T05:12:39.564Z,3.22
2023-03-29T05:15:08.257Z,3.17
2023-03-29T05:17:35.788Z,3.11
2023-03-29T05:20:12.884Z,3.28
2023-03-29T05:22:42.571Z,3.30
2023-03-29T05:25:13.868Z,3.36
2023-03-29T05:27:43.348Z,3.40
2023-03-29T05:30:11.973Z,3.31
2023-03-29T05:33:02.214Z,3.47
2023-03-29T05:35:30.378Z,3.32
2023-03-29T05:38:00.733Z,3.39
2023-03-29T05:40:28.071Z,3.35
2023-03-29T05:43:23.434Z,3.70
2023-03-29T05:45:54.190Z,3.70
2023-03-29T05:48:23.274Z,3.74
2023-03-29T05:50:52.268Z,3.85
2023-03-29T05:53:20.799Z,3.78
2023-03-29T05:55:48.460Z,3.75
2023-03-29T05:58:19.091Z,3.91
2023-03-29T06:00:50.676Z,3.88
2023-03-29T06:03:47.386Z,4.01
2023-03-29T06:06:16.467Z,3.90
2023-03-29T06:08:44.797Z,3.99
2023-03-29T06:11:45.070Z,3.84
2023-03-29T06:14:31.783Z,3.92
2023-03-29T06:17:11.678Z,4.25
2023-03-29T06:19:38.864Z,4.43
2023-03-29T06:22:06.113Z,4.37
2023-03-29T06:24:34.371Z,4.58
2023-03-29T06:27:07.660Z,4.54
2023-03-29T06:29:35.859Z,4.33
2023-03-29T06:32:03.371Z,4.15
2023-03-29T06:34:54.578Z,4.33
2023-03-29T06:37:40.346Z,4.38
2023-03-29T06:40:19.258Z,4.43
2023-03-29T06:42:48.359Z,4.69
2023-03-29T06:45:47.494Z,4.58
2023-03-29T06:48:23.029Z,4.83
2023-03-29T06:50:50.261Z,4.72
2023-03-29T06:53:18.177Z,4.69
2023-03-29T06:55:53.851Z,4.68
2023-03-29T06:58:41.375Z,4.85
2023-03-29T07:01:28.667Z,4.53
2023-03-29T07:04:08.110Z,4.78
2023-03-29T07:06:58.736Z,4.88
2023-03-29T07:09:26.245Z,5.20
2023-03-29T07:12:23.193Z,5.20
2023-03-29T07:14:51.331Z,5.30
2023-03-29T07:17:18.568Z,5.04
2023-03-29T07:19:46.898Z,4.99
2023-03-29T07:22:44.834Z,4.92
2023-03-29T07:25:12.465Z,4.93
2023-03-29T07:27:42.316Z,4.85
2023-03-29T07:30:11.823Z,5.14
2023-03-29T07:32:41.687Z,5.37
2023-03-29T07:35:23.360Z,5.31
2023-03-29T07:37:50.501Z,5.49
2023-03-29T07:40:22.689Z,5.51
2023-03-29T07:42:58.936Z,5.37
2023-03-29T07:45:29.828Z,5.49
2023-03-29T07:48:10.070Z,5.56
2023-03-29T07:50:52.808Z,5.40
2023-03-29T07:53:25.121Z,5.25
2023-03-29T07:55:54.858Z,5.28
2023-03-29T07:58:41.401Z,5.08
2023-03-29T08:01:08.607Z,5.20
2023-03-29T08:03:58.769Z,5.15
2023-03-29T08:06:45.737Z,5.67
2023-03-29T08:09:12.960Z,5.86
2023-03-29T08:11:43.192Z,5.78
2023-03-29T08:14:36.844Z,5.63
2023-03-29T08:17:13.933Z,5.63
2023-03-29T08:19:50.795Z,5.63
2023-03-29T08:22:29.283Z,5.85
2023-03-29T08:25:14.761Z,6.22
2023-03-29T08:27:46.437Z,6.32
2023-03-29T08:30:18.156Z,6.38
2023-03-29T08:32:46.893Z,6.26
2023-03-29T08:35:16.385Z,6.15
2023-03-29T08:37:52.763Z,5.98
2023-03-29T08:40:22.912Z,6.13
2023-03-29T08:43:22.772Z,6.07
2023-03-29T08:46:37.065Z,6.39
2023-03-29T08:49:26.311Z,6.36
2023-03-29T08:51:58.790Z,6.45
2023-03-29T08:54:30.295Z,6.73
2023-03-29T08:57:32.883Z,6.37
2023-03-29T09:00:10.572Z,6.78
2023-03-29T09:02:42.282Z,6.91
2023-03-29T09:05:21.022Z,6.62
2023-03-29T09:07:57.484Z,6.26
2023-03-29T09:10:35.623Z,6.38
2023-03-29T09:13:27.405Z,6.62
2023-03-29T09:16:30.246Z,6.84
2023-03-29T09:19:40.494Z,7.14
2023-03-29T09:22:26.651Z,7.14
2023-03-29T09:25:12.346Z,6.63
2023-03-29T09:27:56.893Z,6.22
2023-03-29T09:31:16.771Z,6.26
2023-03-29T09:33:56.313Z,6.16
2023-03-29T09:36:34.602Z,5.73
2023-03-29T09:39:03.536Z,5.81
2023-03-29T09:41:41.306Z,6.17
2023-03-29T09:44:28.162Z,6.22
2023-03-29T09:47:22.134Z,6.35
2023-03-29T09:49:58.027Z,6.74
2023-03-29T09:52:25.507Z,6.36
2023-03-29T09:55:04.533Z,5.88
2023-03-29T09:57:58.508Z,6.03
2023-03-29T10:00:25.861Z,6.16
2023-03-29T10:02:57.278Z,6.18
2023-03-29T10:05:37.249Z,5.96
2023-03-29T10:08:30.379Z,5.93
2023-03-29T10:11:00.859Z,5.73
2023-03-29T10:13:33.871Z,5.72
2023-03-29T10:16:02.279Z,5.92
2023-03-29T10:18:33.112Z,6.10
2023-03-29T10:21:04.035Z,6.20
2023-03-29T10:23:38.356Z,6.40
2023-03-29T10:26:11.688Z,6.71
2023-03-29T10:28:38.796Z,6.29
2023-03-29T10:31:08.220Z,6.15
2023-03-29T10:33:36.253Z,6.09
2023-03-29T10:36:06.921Z,6.34
2023-03-29T10:38:36.491Z,6.61
2023-03-29T10:41:12.671Z,6.69
2023-03-29T10:43:44.530Z,6.60
2023-03-29T10:46:20.166Z,6.75
2023-03-29T10:48:49.949Z,6.59
2023-03-29T10:51:18.732Z,6.53
2023-03-29T10:53:45.882Z,6.56
2023-03-29T10:56:18.791Z,6.80
2023-03-29T10:58:51.802Z,7.02
2023-03-29T11:01:29.616Z,7.08
2023-03-29T11:04:23.225Z,6.94
2023-03-29T11:07:19.829Z,7.29
2023-03-29T11:10:26.088Z,7.53
2023-03-29T11:13:22.389Z,7.48
2023-03-29T11:16:03.114Z,7.20
2023-03-29T11:18:45.481Z,7.40
2023-03-29T11:21:36.211Z,7.15
2023-03-29T11:24:40.975Z,7.16
2023-03-29T11:27:46.197Z,7.06
2023-03-29T11:30:25.195Z,7.51
2023-03-29T11:33:05.201Z,7.13
2023-03-29T11:35:42.831Z,7.05
2023-03-29T11:38:34.051Z,6.82
2023-03-29T11:41:01.178Z,6.80
2023-03-29T11:43:32.112Z,6.91
2023-03-29T11:46:10.109Z,7.14
2023-03-29T11:48:54.120Z,6.97
2023-03-29T11:51:36.882Z,6.97
2023-03-29T11:54:24.969Z,7.32
2023-03-29T11:57:24.565Z,7.21
2023-03-29T12:00:15.792Z,7.15
2023-03-29T12:02:48.698Z,7.19
2023-03-29T12:05:21.694Z,7.24
2023-03-29T12:08:06.510Z,7.57
2023-03-29T12:10:49.856Z,7.77
2023-03-29T12:13:26.644Z,7.32
2023-03-29T12:16:15.084Z,7.34
2023-03-29T12:18:45.841Z,7.24
2023-03-29T12:21:17.151Z,7.08
2023-03-29T12:23:45.321Z,6.98
2023-03-29T12:26:19.766Z,7.32
2023-03-29T12:29:05.411Z,7.22
2023-03-29T12:32:00.358Z,7.31
2023-03-29T12:34:54.029Z,7.29
2023-03-29T12:38:04.249Z,7.38
2023-03-29T12:41:15.775Z,7.20
2023-03-29T12:44:03.937Z,7.08
2023-03-29T12:46:57.586Z,7.31
2023-03-29T12:49:31.915Z,7.12
2023-03-29T12:52:01.717Z,7.09
2023-03-29T12:54:32.356Z,7.36
2023-03-29T12:57:19.563Z,7.52
2023-03-29T12:59:49.506Z,7.60
2023-03-29T13:02:17.750Z,7.71
2023-03-29T13:05:00.313Z,7.65
2023-03-29T13:07:43.566Z,7.87
2023-03-29T13:10:30.873Z,7.78
2023-03-29T13:13:11.218Z,7.77
2023-03-29T13:22:33.451Z,7.90
2023-03-29T13:25:08.145Z,7.87
2023-03-29T13:27:48.220Z,7.97
2023-03-29T13:30:24.431Z,8.02
2023-03-29T13:33:28.786Z,8.14
2023-03-29T13:36:08.751Z,8.19
2023-03-29T13:38:51.250Z,8.21
2023-03-29T13:41:46.427Z,7.83
2023-03-29T13:44:22.643Z,7.75
2023-03-29T13:47:01.599Z,7.81
2023-03-29T13:49:31.775Z,8.16
2023-03-29T13:52:16.268Z,8.32
2023-03-29T13:55:16.083Z,8.07
2023-03-29T13:58:06.332Z,7.95
2023-03-29T14:00:46.243Z,7.99
2023-03-29T14:03:16.107Z,7.91
2023-03-29T14:05:50.065Z,8.03
2023-03-29T14:08:48.389Z,8.10
2023-03-29T14:11:29.800Z,8.14
2023-03-29T14:14:00.636Z,8.02
2023-03-29T14:16:31.645Z,7.92
2023-03-29T14:22:37.780Z,8.10
2023-03-29T14:25:14.059Z,8.13
2023-03-29T14:27:41.794Z,7.82
2023-03-29T14:30:29.145Z,8.07
2023-03-29T14:32:56.974Z,8.22
2023-03-29T14:35:30.737Z,7.96
2023-03-29T14:37:58.722Z,8.00
2023-03-29T14:40:27.582Z,8.18
2023-03-29T14:42:55.293Z,8.06
2023-03-29T14:45:25.847Z,8.22
2023-03-29T14:47:53.194Z,7.99
2023-03-29T14:50:28.337Z,7.99
2023-03-29T14:52:57.773Z,8.10
2023-03-29T14:55:25.190Z,8.20
2023-03-29T14:57:55.210Z,8.06
2023-03-29T15:00:29.976Z,7.98
2023-03-29T15:03:02.404Z,8.05
2023-03-29T15:05:41.881Z,8.03
2023-03-29T15:08:15.038Z,8.00
2023-03-29T15:10:44.845Z,8.02
2023-03-29T15:13:19.945Z,8.11
2023-03-29T15:15:47.714Z,8.16
2023-03-29T15:18:16.840Z,7.72
2023-03-29T15:20:45.190Z,7.86
2023-03-29T15:23:14.877Z,7.94
2023-03-29T15:25:53.049Z,7.84
2023-03-29T15:28:34.383Z,7.93
2023-03-29T15:31:08.117Z,8.04
2023-03-29T15:33:43.855Z,8.02
2023-03-29T15:36:13.384Z,7.86
2023-03-29T15:38:44.664Z,7.67
2023-03-29T15:41:14.229Z,7.68
2023-03-29T15:43:42.058Z,7.63
2023-03-29T15:46:12.317Z,7.49
2023-03-29T15:48:39.698Z,7.51
2023-03-29T15:51:07.532Z,7.43
2023-03-29T15:53:35.840Z,7.48
2023-03-29T15:56:07.501Z,7.45
2023-03-29T15:58:35.612Z,7.45
2023-03-29T16:01:11.976Z,7.57
2023-03-29T16:03:39.793Z,7.60
2023-03-29T16:06:10.099Z,7.55
2023-03-29T16:08:38.264Z,7.68
2023-03-29T16:11:06.768Z,7.75
2023-03-29T16:13:33.708Z,7.69
2023-03-29T16:16:00.686Z,7.65
2023-03-29T16:18:27.771Z,7.46
2023-03-29T16:20:54.640Z,7.47
2023-03-29T16:23:21.543Z,7.38
2023-03-29T16:25:48.481Z,7.40
2023-03-29T16:28:15.413Z,7.37
2023-03-29T16:30:42.674Z,7.27
2023-03-29T16:33:10.325Z,7.20
2023-03-29T16:35:40.052Z,7.29
2023-03-29T16:38:09.123Z,7.21
2023-03-29T16:40:36.488Z,7.26
2023-03-29T16:43:03.961Z,7.25
2023-03-29T16:45:31.304Z,7.17
2023-03-29T16:47:58.283Z,7.22
2023-03-29T16:50:25.301Z,7.15
2023-03-29T16:52:52.777Z,7.05
2023-03-29T16:55:20.025Z,7.01
2023-03-29T16:57:47.792Z,7.07
2023-03-29T17:00:16.469Z,6.90
2023-03-29T17:02:43.958Z,6.97
2023-03-29T17:05:12.917Z,7.01
2023-03-29T17:07:40.291Z,6.96
2023-03-29T17:10:08.448Z,7.05
2023-03-29T17:12:36.188Z,7.06
2023-03-29T17:15:05.201Z,7.03
2023-03-29T17:17:32.269Z,6.96
2023-03-29T17:19:59.284Z,6.83
2023-03-29T17:22:26.556Z,6.82
2023-03-29T17:24:53.457Z,6.72
2023-03-29T17:27:21.045Z,6.75
2023-03-29T17:29:48.006Z,6.70
2023-03-29T17:32:14.940Z,6.71
2023-03-29T17:34:42.210Z,6.54
2023-03-29T17:37:09.701Z,6.64
2023-03-29T17:39:37.806Z,6.53
2023-03-29T17:42:05.665Z,6.63
2023-03-29T17:44:33.433Z,6.54
2023-03-29T17:47:01.143Z,6.51
2023-03-29T17:49:28.318Z,6.44
2023-03-29T17:51:55.287Z,6.40
2023-03-29T17:54:23.645Z,6.39
2023-03-29T17:56:50.789Z,6.39
2023-03-29T17:59:17.767Z,6.37
2023-03-29T18:01:44.796Z,6.49
2023-03-29T18:04:11.816Z,6.47
2023-03-29T18:06:39.307Z,6.58
2023-03-29T18:09:06.466Z,6.50
2023-03-29T18:11:36.394Z,6.46
2023-03-29T18:14:04.883Z,6.33
2023-03-29T18:16:31.973Z,6.26
2023-03-29T18:18:59.052Z,6.25
2023-03-29T18:21:27.082Z,6.29
2023-03-29T18:23:56.623Z,6.23
2023-03-29T18:26:24.300Z,6.12
2023-03-29T18:28:51.757Z,5.89
2023-03-29T18:31:19.982Z,6.17
2023-03-29T18:33:47.637Z,6.10
2023-03-29T18:36:14.677Z,5.95
2023-03-29T18:38:43.228Z,6.26
2023-03-29T18:41:12.429Z,6.37
2023-03-29T18:43:40.586Z,6.39
2023-03-29T18:46:08.119Z,6.41
2023-03-29T18:48:41.978Z,6.30
2023-03-29T18:51:10.450Z,6.34
2023-03-29T18:53:38.886Z,6.23
2023-03-29T18:56:06.706Z,5.98
2023-03-29T18:58:34.016Z,6.23
2023-03-29T19:01:03.689Z,6.24
2023-03-29T19:03:32.286Z,6.08
2023-03-29T19:05:59.328Z,6.14
2023-03-29T19:08:26.321Z,6.15
2023-03-29T19:10:54.096Z,6.27
2023-03-29T19:13:21.357Z,6.31
2023-03-29T19:15:48.300Z,6.29
2023-03-29T19:18:15.278Z,6.31
2023-03-29T19:20:42.167Z,6.13
2023-03-29T19:23:09.111Z,6.08
2023-03-29T19:25:36.573Z,6.14
2023-03-29T19:28:04.733Z,6.10
2023-03-29T19:30:31.625Z,5.96
2023-03-29T19:32:58.721Z,5.79
2023-03-29T19:35:25.667Z,5.73
2023-03-29T19:37:52.736Z,5.61
2023-03-29T19:40:20.150Z,5.57
2023-03-29T19:42:47.849Z,5.51
2023-03-29T19:45:14.826Z,5.42
2023-03-29T19:47:44.039Z,5.54
2023-03-29T19:50:12.366Z,5.60
2023-03-29T19:52:39.736Z,5.51
2023-03-29T19:55:07.504Z,5.47
2023-03-29T19:57:34.506Z,5.48
2023-03-29T20:00:01.638Z,5.50
2023-03-29T20:02:30.428Z,5.32
2023-03-29T20:04:57.724Z,5.27
2023-03-29T20:07:24.651Z,5.38
2023-03-29T20:09:51.532Z,5.42
2023-03-29T20:12:18.478Z,5.45
2023-03-29T20:14:45.391Z,5.55
2023-03-29T20:17:12.926Z,5.31
2023-03-29T20:19:44.218Z,5.13
2023-03-29T20:22:12.226Z,5.00
2023-03-29T20:24:39.253Z,5.18
2023-03-29T20:27:06.302Z,5.19
2023-03-29T20:29:34.004Z,5.23
2023-03-29T20:32:00.999Z,5.29
2023-03-29T20:34:28.136Z,5.39
2023-03-29T20:36:55.546Z,5.22
2023-03-29T20:39:25.685Z,5.22
2023-03-29T20:41:54.255Z,5.23
2023-03-29T20:44:28.271Z,5.38
2023-03-29T20:47:06.345Z,5.22
2023-03-29T20:49:37.858Z,5.39
2023-03-29T20:52:15.564Z,5.37
2023-03-29T20:54:43.990Z,5.33
2023-03-29T20:57:16.277Z,5.39
2023-03-29T20:59:44.608Z,5.32
2023-03-29T21:02:18.857Z,5.31
2023-03-29T21:04:51.901Z,5.11
2023-03-29T21:07:20.314Z,5.19
2023-03-29T21:09:49.921Z,5.12
2023-03-29T21:12:17.492Z,5.15
2023-03-29T21:14:44.890Z,4.92
2023-03-29T21:17:11.867Z,4.89
2023-03-29T21:19:39.582Z,4.96
2023-03-29T21:22:06.819Z,4.80
2023-03-29T21:24:34.095Z,5.01
2023-03-29T21:27:01.062Z,4.86
2023-03-29T21:29:28.301Z,5.01
2023-03-29T21:31:55.480Z,5.03
2023-03-29T21:34:22.665Z,5.02
2023-03-29T21:36:50.047Z,4.97
2023-03-29T21:39:16.917Z,5.11
2023-03-29T21:41:43.898Z,5.18
2023-03-29T21:44:10.929Z,5.14
2023-03-29T21:46:37.881Z,5.17
2023-03-29T21:49:04.848Z,5.15
2023-03-29T21:51:31.743Z,5.09
2023-03-29T21:53:58.628Z,5.08
2023-03-29T21:56:26.424Z,5.08
2023-03-29T21:58:53.326Z,5.19
2023-03-29T22:01:20.774Z,5.30
2023-03-29T22:03:47.762Z,5.35
2023-03-29T22:06:14.841Z,5.28
2023-03-29T22:08:41.905Z,5.29
2023-03-29T22:11:17.326Z,5.33
2023-03-29T22:13:44.996Z,5.26
2023-03-29T22:16:19.193Z,5.20
2023-03-29T22:18:49.430Z,5.22
2023-03-29T22:21:19.727Z,5.09
2023-03-29T22:23:48.328Z,4.94
2023-03-29T22:26:17.997Z,4.66
2023-03-29T22:28:45.375Z,4.38
2023-03-29T22:31:15.550Z,4.29
2023-03-29T22:33:42.852Z,4.16
2023-03-29T22:36:12.483Z,4.07
2023-03-29T22:38:39.531Z,4.05
2023-03-29T22:41:06.593Z,3.94
2023-03-29T22:43:33.546Z,3.95
2023-03-29T22:46:00.528Z,3.78
2023-03-29T22:48:27.413Z,3.91
2023-03-29T22:50:54.330Z,4.05
2023-03-29T22:53:21.560Z,4.07
2023-03-29T22:55:48.416Z,4.04
2023-03-29T22:58:15.431Z,4.17
2023-03-29T23:00:42.290Z,4.11
2023-03-29T23:03:09.946Z,4.23
2023-03-29T23:05:36.816Z,4.30
2023-03-29T23:08:03.756Z,4.48
2023-03-29T23:10:30.927Z,4.49
2023-03-29T23:13:08.602Z,4.52
2023-03-29T23:15:45.745Z,4.57
2023-03-29T23:18:16.103Z,4.44
2023-03-29T23:20:43.051Z,4.17
2023-03-29T23:23:10.582Z,3.90
2023-03-29T23:25:37.436Z,3.62
2023-03-29T23:28:04.815Z,3.66
2023-03-29T23:30:33.636Z,3.57
2023-03-29T23:33:00.597Z,3.52
2023-03-29T23:35:27.536Z,3.27
2023-03-29T23:37:54.462Z,3.33
2023-03-29T23:40:21.980Z,3.42
2023-03-29T23:42:49.005Z,3.39
2023-03-29T23:45:18.617Z,3.43
2023-03-29T23:47:45.878Z,3.41
2023-03-29T23:50:14.203Z,3.40
2023-03-29T23:52:41.697Z,3.54
2023-03-29T23:55:14.384Z,3.51
2023-03-29T23:57:41.822Z,3.42
